sensor_id;sensor_type;location;lat;lon;timestamp;P1;durP1;ratioP1;P2;durP2;ratioP2
56075;SDS011;41951;49.022;12.066;2023-01-24T00:00:45;16.27;;;7.97;;
56075;SDS011;41951;49.022;12.066;2023-01-24T00:03:11;17.10;;;9.55;;
56075;SDS011;41951;49.022;12.066;2023-01-24T00:05:43;16.83;;;8.68;;
56075;SDS011;41951;49.022;12.066;2023-01-24T00:08:11;17.13;;;9.75;;
56075;SDS011;41951;49.022;12.066;2023-01-24T00:10:38;16.20;;;8.23;;
56075;SDS011;41951;49.022;12.066;2023-01-24T00:13:04;13.32;;;7.38;;
56075;SDS011;41951;49.022;12.066;2023-01-24T00:15:30;13.40;;;7.47;;
56075;SDS011;41951;49.022;12.066;2023-01-24T00:17:56;13.73;;;6.78;;
56075;SDS011;41951;49.022;12.066;2023-01-24T00:20:22;12.93;;;7.18;;
56075;SDS011;41951;49.022;12.066;2023-01-24T00:22:47;13.65;;;7.25;;
56075;SDS011;41951;49.022;12.066;2023-01-24T00:25:13;15.68;;;8.13;;
56075;SDS011;41951;49.022;12.066;2023-01-24T00:27:38;13.80;;;6.93;;
56075;SDS011;41951;49.022;12.066;2023-01-24T00:30:04;11.63;;;6.60;;
56075;SDS011;41951;49.022;12.066;2023-01-24T00:32:31;12.73;;;6.90;;
56075;SDS011;41951;49.022;12.066;2023-01-24T00:34:57;14.00;;;7.82;;
56075;SDS011;41951;49.022;12.066;2023-01-24T00:37:23;13.75;;;7.68;;
56075;SDS011;41951;49.022;12.066;2023-01-24T00:39:48;14.05;;;7.93;;
56075;SDS011;41951;49.022;12.066;2023-01-24T00:42:14;12.77;;;7.63;;
56075;SDS011;41951;49.022;12.066;2023-01-24T00:44:39;11.73;;;6.50;;
56075;SDS011;41951;49.022;12.066;2023-01-24T00:47:05;15.70;;;7.90;;
56075;SDS011;41951;49.022;12.066;2023-01-24T00:49:30;13.75;;;7.55;;
56075;SDS011;41951;49.022;12.066;2023-01-24T00:51:56;15.98;;;7.57;;
56075;SDS011;41951;49.022;12.066;2023-01-24T00:54:21;13.35;;;7.03;;
56075;SDS011;41951;49.022;12.066;2023-01-24T00:56:47;14.00;;;7.10;;
56075;SDS011;41951;49.022;12.066;2023-01-24T00:59:13;18.50;;;8.10;;
56075;SDS011;41951;49.022;12.066;2023-01-24T01:01:38;14.77;;;8.07;;
56075;SDS011;41951;49.022;12.066;2023-01-24T01:04:04;13.05;;;7.35;;
56075;SDS011;41951;49.022;12.066;2023-01-24T01:06:30;12.70;;;7.80;;
56075;SDS011;41951;49.022;12.066;2023-01-24T01:08:55;12.60;;;6.75;;
56075;SDS011;41951;49.022;12.066;2023-01-24T01:11:21;12.75;;;6.70;;
56075;SDS011;41951;49.022;12.066;2023-01-24T01:13:46;12.98;;;6.45;;
56075;SDS011;41951;49.022;12.066;2023-01-24T01:16:16;11.70;;;6.95;;
56075;SDS011;41951;49.022;12.066;2023-01-24T01:18:46;12.13;;;6.32;;
56075;SDS011;41951;49.022;12.066;2023-01-24T01:21:13;10.18;;;5.18;;
56075;SDS011;41951;49.022;12.066;2023-01-24T01:23:41;11.00;;;6.00;;
56075;SDS011;41951;49.022;12.066;2023-01-24T01:26:07;9.90;;;5.30;;
56075;SDS011;41951;49.022;12.066;2023-01-24T01:28:37;11.07;;;5.57;;
56075;SDS011;41951;49.022;12.066;2023-01-24T01:31:03;10.25;;;5.15;;
56075;SDS011;41951;49.022;12.066;2023-01-24T01:33:29;8.65;;;5.07;;
56075;SDS011;41951;49.022;12.066;2023-01-24T01:35:54;8.93;;;5.10;;
56075;SDS011;41951;49.022;12.066;2023-01-24T01:38:20;10.40;;;5.07;;
56075;SDS011;41951;49.022;12.066;2023-01-24T01:40:45;9.50;;;5.05;;
56075;SDS011;41951;49.022;12.066;2023-01-24T01:43:12;11.25;;;5.15;;
56075;SDS011;41951;49.022;12.066;2023-01-24T01:45:43;9.88;;;4.90;;
56075;SDS011;41951;49.022;12.066;2023-01-24T01:50:44;8.90;;;5.15;;
56075;SDS011;41951;49.022;12.066;2023-01-24T01:53:34;8.63;;;5.28;;
56075;SDS011;41951;49.022;12.066;2023-01-24T01:56:05;8.77;;;4.70;;
56075;SDS011;41951;49.022;12.066;2023-01-24T01:58:36;11.05;;;5.07;;
56075;SDS011;41951;49.022;12.066;2023-01-24T02:01:03;9.65;;;5.40;;
56075;SDS011;41951;49.022;12.066;2023-01-24T02:03:32;9.43;;;5.40;;
56075;SDS011;41951;49.022;12.066;2023-01-24T02:06:04;9.25;;;4.85;;
56075;SDS011;41951;49.022;12.066;2023-01-24T02:08:50;9.52;;;4.78;;
56075;SDS011;41951;49.022;12.066;2023-01-24T02:11:17;7.93;;;5.15;;
56075;SDS011;41951;49.022;12.066;2023-01-24T02:14:02;9.00;;;4.72;;
56075;SDS011;41951;49.022;12.066;2023-01-24T02:16:47;8.95;;;5.07;;
56075;SDS011;41951;49.022;12.066;2023-01-24T02:22:28;8.85;;;4.93;;
56075;SDS011;41951;49.022;12.066;2023-01-24T02:25:25;8.05;;;4.47;;
56075;SDS011;41951;49.022;12.066;2023-01-24T02:28:02;8.18;;;4.97;;
56075;SDS011;41951;49.022;12.066;2023-01-24T02:30:28;9.52;;;4.80;;
56075;SDS011;41951;49.022;12.066;2023-01-24T02:32:55;9.13;;;5.13;;
56075;SDS011;41951;49.022;12.066;2023-01-24T02:35:25;10.95;;;5.05;;
56075;SDS011;41951;49.022;12.066;2023-01-24T02:37:53;10.10;;;5.20;;
56075;SDS011;41951;49.022;12.066;2023-01-24T02:40:21;8.55;;;4.90;;
56075;SDS011;41951;49.022;12.066;2023-01-24T02:42:47;9.27;;;5.05;;
56075;SDS011;41951;49.022;12.066;2023-01-24T02:45:16;10.38;;;5.50;;
56075;SDS011;41951;49.022;12.066;2023-01-24T02:47:44;9.43;;;4.72;;
56075;SDS011;41951;49.022;12.066;2023-01-24T02:50:19;8.80;;;5.10;;
56075;SDS011;41951;49.022;12.066;2023-01-24T02:52:47;10.63;;;5.22;;
56075;SDS011;41951;49.022;12.066;2023-01-24T02:55:31;8.55;;;4.80;;
56075;SDS011;41951;49.022;12.066;2023-01-24T02:57:58;9.15;;;5.30;;
56075;SDS011;41951;49.022;12.066;2023-01-24T03:00:36;9.55;;;4.90;;
56075;SDS011;41951;49.022;12.066;2023-01-24T03:03:04;10.57;;;4.53;;
56075;SDS011;41951;49.022;12.066;2023-01-24T03:05:31;7.97;;;4.32;;
56075;SDS011;41951;49.022;12.066;2023-01-24T03:08:16;8.43;;;4.38;;
56075;SDS011;41951;49.022;12.066;2023-01-24T03:10:41;7.80;;;4.47;;
56075;SDS011;41951;49.022;12.066;2023-01-24T03:13:07;8.25;;;4.72;;
56075;SDS011;41951;49.022;12.066;2023-01-24T03:15:51;7.65;;;4.10;;
56075;SDS011;41951;49.022;12.066;2023-01-24T03:18:36;6.97;;;4.18;;
56075;SDS011;41951;49.022;12.066;2023-01-24T03:21:20;7.78;;;4.15;;
56075;SDS011;41951;49.022;12.066;2023-01-24T03:24:04;7.68;;;4.25;;
56075;SDS011;41951;49.022;12.066;2023-01-24T03:26:49;7.75;;;3.90;;
56075;SDS011;41951;49.022;12.066;2023-01-24T03:29:33;8.82;;;4.70;;
56075;SDS011;41951;49.022;12.066;2023-01-24T03:32:17;7.35;;;3.92;;
56075;SDS011;41951;49.022;12.066;2023-01-24T03:35:01;7.18;;;3.92;;
56075;SDS011;41951;49.022;12.066;2023-01-24T03:37:26;6.50;;;4.07;;
56075;SDS011;41951;49.022;12.066;2023-01-24T03:40:12;7.97;;;4.47;;
56075;SDS011;41951;49.022;12.066;2023-01-24T03:42:39;7.45;;;4.38;;
56075;SDS011;41951;49.022;12.066;2023-01-24T03:45:15;7.53;;;4.38;;
56075;SDS011;41951;49.022;12.066;2023-01-24T03:47:52;7.78;;;4.18;;
56075;SDS011;41951;49.022;12.066;2023-01-24T03:50:36;8.73;;;5.32;;
56075;SDS011;41951;49.022;12.066;2023-01-24T03:53:23;8.02;;;4.70;;
56075;SDS011;41951;49.022;12.066;2023-01-24T03:55:53;7.90;;;3.95;;
56075;SDS011;41951;49.022;12.066;2023-01-24T03:58:20;7.93;;;4.07;;
56075;SDS011;41951;49.022;12.066;2023-01-24T04:00:46;11.32;;;6.38;;
56075;SDS011;41951;49.022;12.066;2023-01-24T04:03:12;8.48;;;4.38;;
56075;SDS011;41951;49.022;12.066;2023-01-24T04:05:38;7.68;;;4.53;;
56075;SDS011;41951;49.022;12.066;2023-01-24T04:08:04;9.52;;;5.20;;
56075;SDS011;41951;49.022;12.066;2023-01-24T04:10:30;6.22;;;3.80;;
56075;SDS011;41951;49.022;12.066;2023-01-24T04:12:56;13.10;;;6.82;;
56075;SDS011;41951;49.022;12.066;2023-01-24T04:15:23;8.30;;;5.47;;
56075;SDS011;41951;49.022;12.066;2023-01-24T04:17:57;7.13;;;3.65;;
56075;SDS011;41951;49.022;12.066;2023-01-24T04:20:25;7.57;;;3.85;;
56075;SDS011;41951;49.022;12.066;2023-01-24T04:22:52;6.40;;;3.97;;
56075;SDS011;41951;49.022;12.066;2023-01-24T04:25:18;7.80;;;4.10;;
56075;SDS011;41951;49.022;12.066;2023-01-24T04:27:44;8.18;;;4.63;;
56075;SDS011;41951;49.022;12.066;2023-01-24T04:30:10;8.30;;;4.50;;
56075;SDS011;41951;49.022;12.066;2023-01-24T04:32:37;7.05;;;3.85;;
56075;SDS011;41951;49.022;12.066;2023-01-24T04:35:03;7.47;;;4.15;;
56075;SDS011;41951;49.022;12.066;2023-01-24T04:37:30;6.55;;;3.53;;
56075;SDS011;41951;49.022;12.066;2023-01-24T04:39:56;7.43;;;3.75;;
56075;SDS011;41951;49.022;12.066;2023-01-24T04:42:22;6.38;;;4.32;;
56075;SDS011;41951;49.022;12.066;2023-01-24T04:44:47;7.05;;;3.88;;
56075;SDS011;41951;49.022;12.066;2023-01-24T04:47:13;8.82;;;4.75;;
56075;SDS011;41951;49.022;12.066;2023-01-24T04:49:39;7.40;;;3.97;;
56075;SDS011;41951;49.022;12.066;2023-01-24T04:52:07;7.53;;;4.35;;
56075;SDS011;41951;49.022;12.066;2023-01-24T04:54:37;9.00;;;4.97;;
56075;SDS011;41951;49.022;12.066;2023-01-24T04:57:03;7.85;;;4.32;;
56075;SDS011;41951;49.022;12.066;2023-01-24T04:59:29;7.53;;;3.92;;
56075;SDS011;41951;49.022;12.066;2023-01-24T05:01:54;10.23;;;4.57;;
56075;SDS011;41951;49.022;12.066;2023-01-24T05:04:20;9.88;;;4.80;;
56075;SDS011;41951;49.022;12.066;2023-01-24T05:06:45;8.20;;;4.28;;
56075;SDS011;41951;49.022;12.066;2023-01-24T05:09:11;7.25;;;4.47;;
56075;SDS011;41951;49.022;12.066;2023-01-24T05:11:36;10.73;;;5.25;;
56075;SDS011;41951;49.022;12.066;2023-01-24T05:14:03;10.57;;;5.82;;
56075;SDS011;41951;49.022;12.066;2023-01-24T05:16:28;8.90;;;4.97;;
56075;SDS011;41951;49.022;12.066;2023-01-24T05:18:54;10.80;;;5.50;;
56075;SDS011;41951;49.022;12.066;2023-01-24T05:21:19;9.30;;;5.00;;
56075;SDS011;41951;49.022;12.066;2023-01-24T05:23:48;12.82;;;6.47;;
56075;SDS011;41951;49.022;12.066;2023-01-24T05:26:16;10.68;;;5.43;;
56075;SDS011;41951;49.022;12.066;2023-01-24T05:28:42;11.77;;;5.65;;
56075;SDS011;41951;49.022;12.066;2023-01-24T05:31:08;8.70;;;4.63;;
56075;SDS011;41951;49.022;12.066;2023-01-24T05:33:34;7.95;;;4.35;;
56075;SDS011;41951;49.022;12.066;2023-01-24T05:36:04;8.13;;;4.40;;
56075;SDS011;41951;49.022;12.066;2023-01-24T05:38:31;9.77;;;5.35;;
56075;SDS011;41951;49.022;12.066;2023-01-24T05:40:58;8.63;;;4.70;;
56075;SDS011;41951;49.022;12.066;2023-01-24T05:43:25;8.15;;;4.82;;
56075;SDS011;41951;49.022;12.066;2023-01-24T05:45:50;10.35;;;5.43;;
56075;SDS011;41951;49.022;12.066;2023-01-24T05:48:16;8.25;;;4.63;;
56075;SDS011;41951;49.022;12.066;2023-01-24T05:50:41;9.77;;;5.50;;
56075;SDS011;41951;49.022;12.066;2023-01-24T05:53:07;8.27;;;4.30;;
56075;SDS011;41951;49.022;12.066;2023-01-24T05:55:32;8.82;;;4.63;;
56075;SDS011;41951;49.022;12.066;2023-01-24T05:57:58;9.52;;;4.65;;
56075;SDS011;41951;49.022;12.066;2023-01-24T06:00:25;8.88;;;4.47;;
56075;SDS011;41951;49.022;12.066;2023-01-24T06:02:50;8.68;;;4.85;;
56075;SDS011;41951;49.022;12.066;2023-01-24T06:05:16;8.23;;;4.70;;
56075;SDS011;41951;49.022;12.066;2023-01-24T06:07:42;7.90;;;4.63;;
56075;SDS011;41951;49.022;12.066;2023-01-24T06:10:08;8.95;;;4.82;;
56075;SDS011;41951;49.022;12.066;2023-01-24T06:12:34;8.90;;;5.07;;
56075;SDS011;41951;49.022;12.066;2023-01-24T06:14:59;10.18;;;5.07;;
56075;SDS011;41951;49.022;12.066;2023-01-24T06:17:25;9.88;;;4.65;;
56075;SDS011;41951;49.022;12.066;2023-01-24T06:19:50;9.68;;;5.20;;
56075;SDS011;41951;49.022;12.066;2023-01-24T06:22:21;9.57;;;5.63;;
56075;SDS011;41951;49.022;12.066;2023-01-24T06:25:13;9.88;;;4.60;;
56075;SDS011;41951;49.022;12.066;2023-01-24T06:27:44;9.45;;;5.03;;
56075;SDS011;41951;49.022;12.066;2023-01-24T06:30:11;11.27;;;6.30;;
56075;SDS011;41951;49.022;12.066;2023-01-24T06:38:28;9.43;;;5.15;;
56075;SDS011;41951;49.022;12.066;2023-01-24T06:40:58;9.00;;;5.22;;
56075;SDS011;41951;49.022;12.066;2023-01-24T06:43:25;8.48;;;4.68;;
56075;SDS011;41951;49.022;12.066;2023-01-24T06:45:51;10.27;;;5.72;;
56075;SDS011;41951;49.022;12.066;2023-01-24T06:48:17;9.05;;;4.57;;
56075;SDS011;41951;49.022;12.066;2023-01-24T06:50:43;9.20;;;5.72;;
56075;SDS011;41951;49.022;12.066;2023-01-24T06:53:09;10.55;;;5.78;;
56075;SDS011;41951;49.022;12.066;2023-01-24T06:55:35;8.25;;;4.88;;
56075;SDS011;41951;49.022;12.066;2023-01-24T06:58:02;11.57;;;5.15;;
56075;SDS011;41951;49.022;12.066;2023-01-24T07:00:28;9.93;;;5.15;;
56075;SDS011;41951;49.022;12.066;2023-01-24T07:02:58;8.15;;;4.82;;
56075;SDS011;41951;49.022;12.066;2023-01-24T07:05:31;9.55;;;5.47;;
56075;SDS011;41951;49.022;12.066;2023-01-24T07:07:57;10.05;;;5.25;;
56075;SDS011;41951;49.022;12.066;2023-01-24T07:10:23;9.15;;;5.18;;
56075;SDS011;41951;49.022;12.066;2023-01-24T07:12:49;9.82;;;5.40;;
56075;SDS011;41951;49.022;12.066;2023-01-24T07:15:15;10.90;;;5.68;;
56075;SDS011;41951;49.022;12.066;2023-01-24T07:17:41;10.57;;;5.22;;
56075;SDS011;41951;49.022;12.066;2023-01-24T07:20:08;11.90;;;6.43;;
56075;SDS011;41951;49.022;12.066;2023-01-24T07:22:36;11.52;;;6.18;;
56075;SDS011;41951;49.022;12.066;2023-01-24T07:25:03;10.30;;;6.00;;
56075;SDS011;41951;49.022;12.066;2023-01-24T07:27:29;10.38;;;5.93;;
56075;SDS011;41951;49.022;12.066;2023-01-24T07:29:56;10.88;;;5.65;;
56075;SDS011;41951;49.022;12.066;2023-01-24T07:32:21;8.55;;;4.97;;
56075;SDS011;41951;49.022;12.066;2023-01-24T07:34:47;9.32;;;5.40;;
56075;SDS011;41951;49.022;12.066;2023-01-24T07:37:12;12.13;;;5.63;;
56075;SDS011;41951;49.022;12.066;2023-01-24T07:39:38;11.07;;;5.45;;
56075;SDS011;41951;49.022;12.066;2023-01-24T07:42:03;13.27;;;6.00;;
56075;SDS011;41951;49.022;12.066;2023-01-24T07:44:29;14.10;;;6.03;;
56075;SDS011;41951;49.022;12.066;2023-01-24T07:46:55;10.93;;;6.25;;
56075;SDS011;41951;49.022;12.066;2023-01-24T07:49:20;10.73;;;6.15;;
56075;SDS011;41951;49.022;12.066;2023-01-24T07:51:46;11.25;;;5.95;;
56075;SDS011;41951;49.022;12.066;2023-01-24T07:54:13;13.40;;;6.53;;
56075;SDS011;41951;49.022;12.066;2023-01-24T07:56:39;10.40;;;5.32;;
56075;SDS011;41951;49.022;12.066;2023-01-24T07:59:04;11.85;;;6.20;;
56075;SDS011;41951;49.022;12.066;2023-01-24T08:01:30;12.60;;;6.78;;
56075;SDS011;41951;49.022;12.066;2023-01-24T08:03:56;16.70;;;8.90;;
56075;SDS011;41951;49.022;12.066;2023-01-24T08:06:22;13.68;;;6.55;;
56075;SDS011;41951;49.022;12.066;2023-01-24T08:08:48;11.90;;;6.18;;
56075;SDS011;41951;49.022;12.066;2023-01-24T08:11:14;9.38;;;6.15;;
56075;SDS011;41951;49.022;12.066;2023-01-24T08:13:42;10.73;;;6.30;;
56075;SDS011;41951;49.022;12.066;2023-01-24T08:16:12;10.70;;;5.70;;
56075;SDS011;41951;49.022;12.066;2023-01-24T08:18:38;11.20;;;6.47;;
56075;SDS011;41951;49.022;12.066;2023-01-24T08:21:05;15.20;;;6.25;;
56075;SDS011;41951;49.022;12.066;2023-01-24T08:23:31;13.00;;;6.65;;
56075;SDS011;41951;49.022;12.066;2023-01-24T08:25:57;12.40;;;6.55;;
56075;SDS011;41951;49.022;12.066;2023-01-24T08:28:23;11.25;;;6.00;;
56075;SDS011;41951;49.022;12.066;2023-01-24T08:30:49;11.20;;;5.80;;
56075;SDS011;41951;49.022;12.066;2023-01-24T08:33:14;13.38;;;6.20;;
56075;SDS011;41951;49.022;12.066;2023-01-24T08:35:44;14.35;;;6.53;;
56075;SDS011;41951;49.022;12.066;2023-01-24T08:38:11;11.77;;;5.72;;
56075;SDS011;41951;49.022;12.066;2023-01-24T08:40:37;11.30;;;6.07;;
56075;SDS011;41951;49.022;12.066;2023-01-24T08:43:03;12.15;;;6.10;;
56075;SDS011;41951;49.022;12.066;2023-01-24T08:45:29;10.95;;;5.95;;
56075;SDS011;41951;49.022;12.066;2023-01-24T08:47:55;13.85;;;6.82;;
56075;SDS011;41951;49.022;12.066;2023-01-24T08:50:21;9.88;;;5.63;;
56075;SDS011;41951;49.022;12.066;2023-01-24T08:52:47;10.90;;;5.78;;
56075;SDS011;41951;49.022;12.066;2023-01-24T08:55:13;13.65;;;6.50;;
56075;SDS011;41951;49.022;12.066;2023-01-24T08:57:39;12.02;;;6.68;;
56075;SDS011;41951;49.022;12.066;2023-01-24T09:00:05;11.02;;;6.05;;
56075;SDS011;41951;49.022;12.066;2023-01-24T09:02:31;11.27;;;6.38;;
56075;SDS011;41951;49.022;12.066;2023-01-24T09:05:05;12.60;;;6.88;;
56075;SDS011;41951;49.022;12.066;2023-01-24T09:07:32;15.03;;;6.40;;
56075;SDS011;41951;49.022;12.066;2023-01-24T09:10:04;13.18;;;6.53;;
56075;SDS011;41951;49.022;12.066;2023-01-24T09:12:30;12.45;;;6.20;;
56075;SDS011;41951;49.022;12.066;2023-01-24T09:14:59;13.00;;;6.95;;
56075;SDS011;41951;49.022;12.066;2023-01-24T09:17:25;11.43;;;7.00;;
56075;SDS011;41951;49.022;12.066;2023-01-24T09:19:50;11.73;;;6.47;;
56075;SDS011;41951;49.022;12.066;2023-01-24T09:22:16;12.32;;;6.78;;
56075;SDS011;41951;49.022;12.066;2023-01-24T09:24:42;11.88;;;6.82;;
56075;SDS011;41951;49.022;12.066;2023-01-24T09:27:09;11.93;;;7.25;;
56075;SDS011;41951;49.022;12.066;2023-01-24T09:29:35;11.38;;;6.75;;
56075;SDS011;41951;49.022;12.066;2023-01-24T09:32:01;16.35;;;6.90;;
56075;SDS011;41951;49.022;12.066;2023-01-24T09:34:26;12.43;;;6.65;;
56075;SDS011;41951;49.022;12.066;2023-01-24T09:36:52;11.07;;;6.22;;
56075;SDS011;41951;49.022;12.066;2023-01-24T09:39:17;12.05;;;6.50;;
56075;SDS011;41951;49.022;12.066;2023-01-24T09:41:58;11.85;;;6.70;;
56075;SDS011;41951;49.022;12.066;2023-01-24T09:47:26;11.82;;;6.75;;
56075;SDS011;41951;49.022;12.066;2023-01-24T09:50:03;17.27;;;7.97;;
56075;SDS011;41951;49.022;12.066;2023-01-24T09:52:36;10.63;;;6.47;;
56075;SDS011;41951;49.022;12.066;2023-01-24T09:55:24;13.93;;;6.63;;
56075;SDS011;41951;49.022;12.066;2023-01-24T10:01:00;12.20;;;7.90;;
56075;SDS011;41951;49.022;12.066;2023-01-24T10:03:30;12.27;;;6.60;;
56075;SDS011;41951;49.022;12.066;2023-01-24T10:05:58;12.52;;;6.05;;
56075;SDS011;41951;49.022;12.066;2023-01-24T10:25:44;11.25;;;5.60;;
56075;SDS011;41951;49.022;12.066;2023-01-24T10:27:53;10.10;;;5.70;;
56075;SDS011;41951;49.022;12.066;2023-01-24T10:30:30;12.07;;;6.22;;
56075;SDS011;41951;49.022;12.066;2023-01-24T10:33:02;14.55;;;6.97;;
56075;SDS011;41951;49.022;12.066;2023-01-24T10:35:30;13.60;;;6.28;;
56075;SDS011;41951;49.022;12.066;2023-01-24T10:38:02;12.77;;;6.25;;
56075;SDS011;41951;49.022;12.066;2023-01-24T10:40:32;10.60;;;6.65;;
56075;SDS011;41951;49.022;12.066;2023-01-24T10:43:03;9.32;;;5.78;;
56075;SDS011;41951;49.022;12.066;2023-01-24T10:48:01;14.93;;;6.72;;
56075;SDS011;41951;49.022;12.066;2023-01-24T10:50:42;10.32;;;6.07;;
56075;SDS011;41951;49.022;12.066;2023-01-24T10:53:27;9.00;;;5.77;;
56075;SDS011;41951;49.022;12.066;2023-01-24T10:56:03;11.48;;;7.00;;
56075;SDS011;41951;49.022;12.066;2023-01-24T10:58:34;10.52;;;6.70;;
56075;SDS011;41951;49.022;12.066;2023-01-24T11:01:20;10.50;;;5.43;;
56075;SDS011;41951;49.022;12.066;2023-01-24T11:03:48;10.95;;;6.13;;
56075;SDS011;41951;49.022;12.066;2023-01-24T11:06:23;10.60;;;6.25;;
56075;SDS011;41951;49.022;12.066;2023-01-24T11:08:54;11.15;;;6.60;;
56075;SDS011;41951;49.022;12.066;2023-01-24T11:11:28;13.43;;;6.40;;
56075;SDS011;41951;49.022;12.066;2023-01-24T11:13:55;11.00;;;6.30;;
56075;SDS011;41951;49.022;12.066;2023-01-24T11:16:26;11.25;;;6.13;;
56075;SDS011;41951;49.022;12.066;2023-01-24T11:19:03;9.82;;;5.68;;
56075;SDS011;41951;49.022;12.066;2023-01-24T11:21:29;13.60;;;5.97;;
56075;SDS011;41951;49.022;12.066;2023-01-24T11:24:00;10.48;;;5.88;;
56075;SDS011;41951;49.022;12.066;2023-01-24T11:26:30;10.80;;;5.72;;
56075;SDS011;41951;49.022;12.066;2023-01-24T11:29:01;8.95;;;5.28;;
56075;SDS011;41951;49.022;12.066;2023-01-24T11:31:44;8.60;;;4.93;;
56075;SDS011;41951;49.022;12.066;2023-01-24T11:34:50;8.98;;;5.20;;
56075;SDS011;41951;49.022;12.066;2023-01-24T11:43:10;10.52;;;5.60;;
56075;SDS011;41951;49.022;12.066;2023-01-24T11:56:51;9.82;;;5.78;;
56075;SDS011;41951;49.022;12.066;2023-01-24T12:16:10;9.48;;;6.07;;
56075;SDS011;41951;49.022;12.066;2023-01-24T12:21:24;9.82;;;5.93;;
56075;SDS011;41951;49.022;12.066;2023-01-24T12:24:01;12.30;;;6.55;;
56075;SDS011;41951;49.022;12.066;2023-01-24T12:26:41;12.02;;;6.90;;
56075;SDS011;41951;49.022;12.066;2023-01-24T12:29:18;11.48;;;6.90;;
56075;SDS011;41951;49.022;12.066;2023-01-24T12:31:51;12.02;;;6.60;;
56075;SDS011;41951;49.022;12.066;2023-01-24T12:37:10;13.35;;;7.65;;
56075;SDS011;41951;49.022;12.066;2023-01-24T12:39:58;14.17;;;8.07;;
56075;SDS011;41951;49.022;12.066;2023-01-24T12:48:04;12.82;;;7.55;;
56075;SDS011;41951;49.022;12.066;2023-01-24T12:50:48;13.88;;;7.90;;
56075;SDS011;41951;49.022;12.066;2023-01-24T12:53:56;16.02;;;8.57;;
56075;SDS011;41951;49.022;12.066;2023-01-24T12:56:47;15.77;;;8.30;;
56075;SDS011;41951;49.022;12.066;2023-01-24T12:59:28;14.75;;;8.13;;
56075;SDS011;41951;49.022;12.066;2023-01-24T13:10:39;13.00;;;8.05;;
56075;SDS011;41951;49.022;12.066;2023-01-24T13:13:13;14.93;;;8.60;;
56075;SDS011;41951;49.022;12.066;2023-01-24T13:19:06;13.52;;;7.97;;
56075;SDS011;41951;49.022;12.066;2023-01-24T13:22:30;19.55;;;10.10;;
56075;SDS011;41951;49.022;12.066;2023-01-24T13:33:03;16.20;;;9.70;;
56075;SDS011;41951;49.022;12.066;2023-01-24T13:35:30;14.00;;;8.48;;
56075;SDS011;41951;49.022;12.066;2023-01-24T13:38:03;17.50;;;8.95;;
56075;SDS011;41951;49.022;12.066;2023-01-24T13:46:13;15.10;;;8.63;;
56075;SDS011;41951;49.022;12.066;2023-01-24T13:54:02;14.85;;;7.85;;
56075;SDS011;41951;49.022;12.066;2023-01-24T13:56:30;14.57;;;8.30;;
56075;SDS011;41951;49.022;12.066;2023-01-24T13:58:57;14.90;;;7.97;;
56075;SDS011;41951;49.022;12.066;2023-01-24T14:01:23;14.10;;;7.72;;
56075;SDS011;41951;49.022;12.066;2023-01-24T14:06:27;14.63;;;8.45;;
56075;SDS011;41951;49.022;12.066;2023-01-24T14:09:18;16.48;;;9.20;;
56075;SDS011;41951;49.022;12.066;2023-01-24T14:11:53;16.58;;;8.48;;
56075;SDS011;41951;49.022;12.066;2023-01-24T14:14:31;13.77;;;8.30;;
56075;SDS011;41951;49.022;12.066;2023-01-24T14:17:03;15.10;;;8.43;;
56075;SDS011;41951;49.022;12.066;2023-01-24T14:19:49;17.77;;;8.75;;
56075;SDS011;41951;49.022;12.066;2023-01-24T14:22:18;14.45;;;8.45;;
56075;SDS011;41951;49.022;12.066;2023-01-24T14:29:50;14.68;;;8.25;;
56075;SDS011;41951;49.022;12.066;2023-01-24T14:32:24;15.68;;;8.13;;
56075;SDS011;41951;49.022;12.066;2023-01-24T14:37:38;14.13;;;8.07;;
56075;SDS011;41951;49.022;12.066;2023-01-24T14:42:48;13.75;;;7.53;;
56075;SDS011;41951;49.022;12.066;2023-01-24T14:45:16;17.33;;;9.25;;
56075;SDS011;41951;49.022;12.066;2023-01-24T14:47:47;17.23;;;9.32;;
56075;SDS011;41951;49.022;12.066;2023-01-24T14:50:21;15.80;;;8.57;;
56075;SDS011;41951;49.022;12.066;2023-01-24T14:52:48;17.90;;;8.98;;
56075;SDS011;41951;49.022;12.066;2023-01-24T14:57:42;18.98;;;9.40;;
56075;SDS011;41951;49.022;12.066;2023-01-24T15:02:53;14.65;;;8.60;;
56075;SDS011;41951;49.022;12.066;2023-01-24T15:05:24;17.92;;;9.10;;
56075;SDS011;41951;49.022;12.066;2023-01-24T15:07:52;16.42;;;8.85;;
56075;SDS011;41951;49.022;12.066;2023-01-24T15:10:38;15.57;;;8.30;;
56075;SDS011;41951;49.022;12.066;2023-01-24T15:13:06;14.73;;;8.68;;
56075;SDS011;41951;49.022;12.066;2023-01-24T15:15:34;14.20;;;7.95;;
56075;SDS011;41951;49.022;12.066;2023-01-24T15:18:01;15.60;;;8.02;;
56075;SDS011;41951;49.022;12.066;2023-01-24T15:20:47;14.95;;;8.02;;
56075;SDS011;41951;49.022;12.066;2023-01-24T15:23:14;15.93;;;8.40;;
56075;SDS011;41951;49.022;12.066;2023-01-24T15:25:45;15.65;;;9.27;;
56075;SDS011;41951;49.022;12.066;2023-01-24T15:28:18;16.50;;;8.68;;
56075;SDS011;41951;49.022;12.066;2023-01-24T15:30:54;13.80;;;8.25;;
56075;SDS011;41951;49.022;12.066;2023-01-24T15:33:24;14.63;;;8.00;;
56075;SDS011;41951;49.022;12.066;2023-01-24T15:36:03;17.52;;;9.75;;
56075;SDS011;41951;49.022;12.066;2023-01-24T15:38:31;16.40;;;9.50;;
56075;SDS011;41951;49.022;12.066;2023-01-24T15:46:22;26.55;;;11.85;;
56075;SDS011;41951;49.022;12.066;2023-01-24T15:51:45;18.13;;;9.45;;
56075;SDS011;41951;49.022;12.066;2023-01-24T15:54:26;17.27;;;8.80;;
56075;SDS011;41951;49.022;12.066;2023-01-24T15:56:53;16.92;;;9.02;;
56075;SDS011;41951;49.022;12.066;2023-01-24T15:59:24;17.08;;;9.25;;
56075;SDS011;41951;49.022;12.066;2023-01-24T16:01:50;17.73;;;10.18;;
56075;SDS011;41951;49.022;12.066;2023-01-24T16:04:17;20.77;;;10.32;;
56075;SDS011;41951;49.022;12.066;2023-01-24T16:06:44;18.00;;;8.95;;
56075;SDS011;41951;49.022;12.066;2023-01-24T16:09:10;16.42;;;9.13;;
56075;SDS011;41951;49.022;12.066;2023-01-24T16:11:37;19.67;;;9.25;;
56075;SDS011;41951;49.022;12.066;2023-01-24T16:14:04;16.85;;;9.05;;
56075;SDS011;41951;49.022;12.066;2023-01-24T16:16:32;21.77;;;9.63;;
56075;SDS011;41951;49.022;12.066;2023-01-24T16:18:58;20.10;;;10.57;;
56075;SDS011;41951;49.022;12.066;2023-01-24T16:21:24;46.25;;;26.13;;
56075;SDS011;41951;49.022;12.066;2023-01-24T16:23:49;18.60;;;10.20;;
56075;SDS011;41951;49.022;12.066;2023-01-24T16:26:22;23.55;;;12.63;;
56075;SDS011;41951;49.022;12.066;2023-01-24T16:28:49;27.45;;;15.23;;
56075;SDS011;41951;49.022;12.066;2023-01-24T16:31:15;18.75;;;9.85;;
56075;SDS011;41951;49.022;12.066;2023-01-24T16:33:42;18.77;;;10.38;;
56075;SDS011;41951;49.022;12.066;2023-01-24T16:36:09;16.95;;;8.82;;
56075;SDS011;41951;49.022;12.066;2023-01-24T16:38:38;16.67;;;10.15;;
56075;SDS011;41951;49.022;12.066;2023-01-24T16:41:04;17.50;;;10.10;;
56075;SDS011;41951;49.022;12.066;2023-01-24T16:43:30;19.13;;;10.23;;
56075;SDS011;41951;49.022;12.066;2023-01-24T16:45:56;16.98;;;9.88;;
56075;SDS011;41951;49.022;12.066;2023-01-24T16:48:22;17.98;;;9.88;;
56075;SDS011;41951;49.022;12.066;2023-01-24T16:50:47;18.13;;;10.00;;
56075;SDS011;41951;49.022;12.066;2023-01-24T16:53:15;17.50;;;10.48;;
56075;SDS011;41951;49.022;12.066;2023-01-24T16:55:41;19.10;;;10.73;;
56075;SDS011;41951;49.022;12.066;2023-01-24T16:58:08;19.40;;;10.90;;
56075;SDS011;41951;49.022;12.066;2023-01-24T17:00:35;23.25;;;11.02;;